Aviation Digital Data Service (ADDS)

Output produced by TAFs form (1525 UTC 27 July 2016)
found at http://aviationweather.gov/adds/tafs/
 
KSAF 271123Z 2712/2812 01005KT P6SM FEW150 
     FM271900 25007KT P6SM FEW100 SCT150 
     FM272200 12010KT P6SM SCT100 SCT150 
     FM280400 VRB05KT P6SM FEW150